sensor_id;sensor_type;location;lat;lon;timestamp;P1;durP1;ratioP1;P2;durP2;ratioP2
58446;SDS011;44240;51.840;7.258;2022-09-14T00:01:20;6.72;;;1.10;;
58446;SDS011;44240;51.840;7.258;2022-09-14T00:03:47;4.70;;;1.05;;
58446;SDS011;44240;51.840;7.258;2022-09-14T00:06:16;2.42;;;1.10;;
58446;SDS011;44240;51.840;7.258;2022-09-14T00:08:42;3.58;;;0.90;;
58446;SDS011;44240;51.840;7.258;2022-09-14T00:11:09;2.42;;;1.35;;
58446;SDS011;44240;51.840;7.258;2022-09-14T00:13:40;4.63;;;0.90;;
58446;SDS011;44240;51.840;7.258;2022-09-14T00:16:08;4.10;;;1.10;;
58446;SDS011;44240;51.840;7.258;2022-09-14T00:18:38;4.20;;;1.33;;
58446;SDS011;44240;51.840;7.258;2022-09-14T00:21:05;5.97;;;1.00;;
58446;SDS011;44240;51.840;7.258;2022-09-14T00:23:34;3.78;;;1.30;;
58446;SDS011;44240;51.840;7.258;2022-09-14T00:26:01;6.03;;;1.10;;
58446;SDS011;44240;51.840;7.258;2022-09-14T00:28:38;6.03;;;1.48;;
58446;SDS011;44240;51.840;7.258;2022-09-14T00:31:08;7.87;;;1.23;;
58446;SDS011;44240;51.840;7.258;2022-09-14T00:33:35;1.85;;;0.82;;
58446;SDS011;44240;51.840;7.258;2022-09-14T00:38:35;7.53;;;1.50;;
58446;SDS011;44240;51.840;7.258;2022-09-14T00:41:01;7.55;;;1.55;;
58446;SDS011;44240;51.840;7.258;2022-09-14T00:43:28;3.80;;;1.25;;
58446;SDS011;44240;51.840;7.258;2022-09-14T00:45:54;4.50;;;1.25;;
58446;SDS011;44240;51.840;7.258;2022-09-14T00:48:21;3.30;;;1.05;;
58446;SDS011;44240;51.840;7.258;2022-09-14T00:50:48;6.38;;;1.38;;
58446;SDS011;44240;51.840;7.258;2022-09-14T00:53:14;3.13;;;1.17;;
58446;SDS011;44240;51.840;7.258;2022-09-14T00:55:40;2.40;;;1.13;;
58446;SDS011;44240;51.840;7.258;2022-09-14T00:58:05;4.25;;;1.27;;
58446;SDS011;44240;51.840;7.258;2022-09-14T01:00:31;6.30;;;1.30;;
58446;SDS011;44240;51.840;7.258;2022-09-14T01:02:57;6.13;;;1.35;;
58446;SDS011;44240;51.840;7.258;2022-09-14T01:05:26;3.97;;;1.40;;
58446;SDS011;44240;51.840;7.258;2022-09-14T01:08:07;2.10;;;1.10;;
58446;SDS011;44240;51.840;7.258;2022-09-14T01:11:02;5.55;;;1.40;;
58446;SDS011;44240;51.840;7.258;2022-09-14T01:13:38;4.72;;;1.33;;
58446;SDS011;44240;51.840;7.258;2022-09-14T01:16:17;7.97;;;1.55;;
58446;SDS011;44240;51.840;7.258;2022-09-14T01:18:54;5.35;;;1.75;;
58446;SDS011;44240;51.840;7.258;2022-09-14T01:21:27;6.10;;;1.40;;
58446;SDS011;44240;51.840;7.258;2022-09-14T01:24:14;9.70;;;1.40;;
58446;SDS011;44240;51.840;7.258;2022-09-14T01:29:39;4.15;;;1.25;;
58446;SDS011;44240;51.840;7.258;2022-09-14T01:32:29;4.90;;;1.00;;
58446;SDS011;44240;51.840;7.258;2022-09-14T01:35:06;4.78;;;1.20;;
58446;SDS011;44240;51.840;7.258;2022-09-14T01:40:26;6.15;;;1.20;;
58446;SDS011;44240;51.840;7.258;2022-09-14T01:43:09;5.25;;;2.00;;
58446;SDS011;44240;51.840;7.258;2022-09-14T01:45:41;10.23;;;1.63;;
58446;SDS011;44240;51.840;7.258;2022-09-14T01:48:10;3.03;;;1.50;;
58446;SDS011;44240;51.840;7.258;2022-09-14T01:50:39;3.83;;;1.42;;
58446;SDS011;44240;51.840;7.258;2022-09-14T01:53:13;6.88;;;1.42;;
58446;SDS011;44240;51.840;7.258;2022-09-14T01:55:56;2.72;;;1.33;;
58446;SDS011;44240;51.840;7.258;2022-09-14T01:58:31;5.45;;;1.40;;
58446;SDS011;44240;51.840;7.258;2022-09-14T02:01:02;3.13;;;1.60;;
58446;SDS011;44240;51.840;7.258;2022-09-14T02:03:35;5.13;;;1.17;;
58446;SDS011;44240;51.840;7.258;2022-09-14T02:06:11;4.65;;;1.20;;
58446;SDS011;44240;51.840;7.258;2022-09-14T02:08:53;1.70;;;0.85;;
58446;SDS011;44240;51.840;7.258;2022-09-14T02:11:19;5.93;;;1.20;;
58446;SDS011;44240;51.840;7.258;2022-09-14T02:13:45;6.20;;;1.27;;
58446;SDS011;44240;51.840;7.258;2022-09-14T02:16:10;3.95;;;1.42;;
58446;SDS011;44240;51.840;7.258;2022-09-14T02:18:37;6.10;;;1.55;;
58446;SDS011;44240;51.840;7.258;2022-09-14T02:21:13;3.88;;;1.05;;
58446;SDS011;44240;51.840;7.258;2022-09-14T02:23:43;3.03;;;1.27;;
58446;SDS011;44240;51.840;7.258;2022-09-14T02:26:08;5.55;;;1.35;;
58446;SDS011;44240;51.840;7.258;2022-09-14T02:28:35;2.78;;;1.33;;
58446;SDS011;44240;51.840;7.258;2022-09-14T02:36:47;3.53;;;1.10;;
58446;SDS011;44240;51.840;7.258;2022-09-14T02:39:23;6.32;;;1.48;;
58446;SDS011;44240;51.840;7.258;2022-09-14T02:42:03;5.38;;;1.88;;
58446;SDS011;44240;51.840;7.258;2022-09-14T02:44:47;3.90;;;1.00;;
58446;SDS011;44240;51.840;7.258;2022-09-14T02:56:05;7.78;;;1.67;;
58446;SDS011;44240;51.840;7.258;2022-09-14T02:58:37;5.82;;;1.23;;
58446;SDS011;44240;51.840;7.258;2022-09-14T03:01:08;4.68;;;1.45;;
58446;SDS011;44240;51.840;7.258;2022-09-14T03:03:35;4.18;;;1.35;;
58446;SDS011;44240;51.840;7.258;2022-09-14T03:06:01;5.80;;;1.40;;
58446;SDS011;44240;51.840;7.258;2022-09-14T03:08:27;6.13;;;1.45;;
58446;SDS011;44240;51.840;7.258;2022-09-14T03:10:52;6.80;;;1.27;;
58446;SDS011;44240;51.840;7.258;2022-09-14T03:13:18;4.20;;;1.42;;
58446;SDS011;44240;51.840;7.258;2022-09-14T03:15:44;7.30;;;1.40;;
58446;SDS011;44240;51.840;7.258;2022-09-14T03:18:10;4.32;;;1.77;;
58446;SDS011;44240;51.840;7.258;2022-09-14T03:20:36;2.05;;;1.00;;
58446;SDS011;44240;51.840;7.258;2022-09-14T03:23:02;5.22;;;1.38;;
58446;SDS011;44240;51.840;7.258;2022-09-14T03:25:29;3.53;;;1.00;;
58446;SDS011;44240;51.840;7.258;2022-09-14T03:27:56;5.65;;;1.40;;
58446;SDS011;44240;51.840;7.258;2022-09-14T03:30:23;2.83;;;1.63;;
58446;SDS011;44240;51.840;7.258;2022-09-14T03:32:49;2.58;;;1.33;;
58446;SDS011;44240;51.840;7.258;2022-09-14T03:35:15;4.95;;;1.30;;
58446;SDS011;44240;51.840;7.258;2022-09-14T03:37:42;4.78;;;1.77;;
58446;SDS011;44240;51.840;7.258;2022-09-14T03:40:09;8.05;;;1.80;;
58446;SDS011;44240;51.840;7.258;2022-09-14T03:42:41;3.45;;;1.60;;
58446;SDS011;44240;51.840;7.258;2022-09-14T03:45:11;3.20;;;1.48;;
58446;SDS011;44240;51.840;7.258;2022-09-14T03:47:37;5.57;;;1.77;;
58446;SDS011;44240;51.840;7.258;2022-09-14T03:50:04;4.32;;;3.05;;
58446;SDS011;44240;51.840;7.258;2022-09-14T03:52:30;8.35;;;1.52;;
58446;SDS011;44240;51.840;7.258;2022-09-14T03:54:56;7.82;;;1.70;;
58446;SDS011;44240;51.840;7.258;2022-09-14T03:57:22;3.85;;;1.25;;
58446;SDS011;44240;51.840;7.258;2022-09-14T03:59:47;2.97;;;1.80;;
58446;SDS011;44240;51.840;7.258;2022-09-14T04:02:14;7.82;;;1.73;;
58446;SDS011;44240;51.840;7.258;2022-09-14T04:04:39;1.50;;;1.40;;
58446;SDS011;44240;51.840;7.258;2022-09-14T04:07:05;2.08;;;1.35;;
58446;SDS011;44240;51.840;7.258;2022-09-14T04:09:31;4.63;;;1.38;;
58446;SDS011;44240;51.840;7.258;2022-09-14T04:11:57;5.90;;;1.83;;
58446;SDS011;44240;51.840;7.258;2022-09-14T04:14:23;6.82;;;1.50;;
58446;SDS011;44240;51.840;7.258;2022-09-14T04:16:49;3.72;;;1.20;;
58446;SDS011;44240;51.840;7.258;2022-09-14T04:19:14;6.28;;;1.73;;
58446;SDS011;44240;51.840;7.258;2022-09-14T04:21:40;6.30;;;1.40;;
58446;SDS011;44240;51.840;7.258;2022-09-14T04:24:05;7.40;;;2.08;;
58446;SDS011;44240;51.840;7.258;2022-09-14T04:26:33;6.03;;;1.75;;
58446;SDS011;44240;51.840;7.258;2022-09-14T04:28:58;4.00;;;1.48;;
58446;SDS011;44240;51.840;7.258;2022-09-14T04:31:24;4.07;;;1.52;;
58446;SDS011;44240;51.840;7.258;2022-09-14T04:33:50;4.82;;;1.45;;
58446;SDS011;44240;51.840;7.258;2022-09-14T04:36:17;5.80;;;2.63;;
58446;SDS011;44240;51.840;7.258;2022-09-14T04:38:44;6.07;;;1.63;;
58446;SDS011;44240;51.840;7.258;2022-09-14T04:41:11;3.97;;;1.30;;
58446;SDS011;44240;51.840;7.258;2022-09-14T04:43:42;6.78;;;1.60;;
58446;SDS011;44240;51.840;7.258;2022-09-14T04:46:10;2.90;;;1.40;;
58446;SDS011;44240;51.840;7.258;2022-09-14T04:48:40;8.98;;;1.80;;
58446;SDS011;44240;51.840;7.258;2022-09-14T04:51:10;4.25;;;1.25;;
58446;SDS011;44240;51.840;7.258;2022-09-14T04:53:38;2.67;;;1.30;;
58446;SDS011;44240;51.840;7.258;2022-09-14T04:56:05;6.88;;;1.45;;
58446;SDS011;44240;51.840;7.258;2022-09-14T04:58:32;5.30;;;1.30;;
58446;SDS011;44240;51.840;7.258;2022-09-14T05:01:07;7.68;;;2.65;;
58446;SDS011;44240;51.840;7.258;2022-09-14T05:03:36;5.78;;;1.67;;
58446;SDS011;44240;51.840;7.258;2022-09-14T05:06:06;2.15;;;1.23;;
58446;SDS011;44240;51.840;7.258;2022-09-14T05:08:33;6.30;;;1.80;;
58446;SDS011;44240;51.840;7.258;2022-09-14T05:11:00;2.58;;;1.35;;
58446;SDS011;44240;51.840;7.258;2022-09-14T05:13:26;2.13;;;1.30;;
58446;SDS011;44240;51.840;7.258;2022-09-14T05:15:52;8.05;;;2.15;;
58446;SDS011;44240;51.840;7.258;2022-09-14T05:18:18;3.22;;;1.33;;
58446;SDS011;44240;51.840;7.258;2022-09-14T05:20:43;4.20;;;2.08;;
58446;SDS011;44240;51.840;7.258;2022-09-14T05:23:09;5.72;;;1.40;;
58446;SDS011;44240;51.840;7.258;2022-09-14T05:25:35;5.28;;;1.60;;
58446;SDS011;44240;51.840;7.258;2022-09-14T05:28:00;5.07;;;1.85;;
58446;SDS011;44240;51.840;7.258;2022-09-14T05:30:26;8.75;;;2.25;;
58446;SDS011;44240;51.840;7.258;2022-09-14T05:32:52;4.38;;;1.90;;
58446;SDS011;44240;51.840;7.258;2022-09-14T05:35:17;11.13;;;3.83;;
58446;SDS011;44240;51.840;7.258;2022-09-14T05:37:43;6.40;;;1.70;;
58446;SDS011;44240;51.840;7.258;2022-09-14T05:40:08;3.92;;;1.95;;
58446;SDS011;44240;51.840;7.258;2022-09-14T05:42:34;3.22;;;1.85;;
58446;SDS011;44240;51.840;7.258;2022-09-14T05:45:00;1.75;;;1.55;;
58446;SDS011;44240;51.840;7.258;2022-09-14T05:47:28;7.75;;;1.70;;
58446;SDS011;44240;51.840;7.258;2022-09-14T05:49:55;3.75;;;1.88;;
58446;SDS011;44240;51.840;7.258;2022-09-14T05:52:21;2.50;;;1.80;;
58446;SDS011;44240;51.840;7.258;2022-09-14T05:54:47;6.35;;;1.88;;
58446;SDS011;44240;51.840;7.258;2022-09-14T05:57:13;4.07;;;1.83;;
58446;SDS011;44240;51.840;7.258;2022-09-14T05:59:38;6.97;;;2.03;;
58446;SDS011;44240;51.840;7.258;2022-09-14T06:02:04;8.35;;;2.38;;
58446;SDS011;44240;51.840;7.258;2022-09-14T06:04:30;7.82;;;2.42;;
58446;SDS011;44240;51.840;7.258;2022-09-14T06:06:55;3.10;;;1.77;;
58446;SDS011;44240;51.840;7.258;2022-09-14T06:09:21;7.32;;;1.73;;
58446;SDS011;44240;51.840;7.258;2022-09-14T06:11:46;4.57;;;2.38;;
58446;SDS011;44240;51.840;7.258;2022-09-14T06:14:12;6.28;;;2.63;;
58446;SDS011;44240;51.840;7.258;2022-09-14T06:16:37;9.70;;;1.98;;
58446;SDS011;44240;51.840;7.258;2022-09-14T06:19:03;4.18;;;2.40;;
58446;SDS011;44240;51.840;7.258;2022-09-14T06:21:29;12.07;;;2.67;;
58446;SDS011;44240;51.840;7.258;2022-09-14T06:23:57;2.30;;;2.03;;
58446;SDS011;44240;51.840;7.258;2022-09-14T06:26:23;5.10;;;2.40;;
58446;SDS011;44240;51.840;7.258;2022-09-14T06:28:49;8.50;;;2.47;;
58446;SDS011;44240;51.840;7.258;2022-09-14T06:31:17;4.95;;;2.30;;
58446;SDS011;44240;51.840;7.258;2022-09-14T06:33:46;6.95;;;2.42;;
58446;SDS011;44240;51.840;7.258;2022-09-14T06:36:17;3.95;;;2.83;;
58446;SDS011;44240;51.840;7.258;2022-09-14T06:38:44;6.60;;;2.55;;
58446;SDS011;44240;51.840;7.258;2022-09-14T06:41:11;15.82;;;3.17;;
58446;SDS011;44240;51.840;7.258;2022-09-14T06:43:39;13.27;;;2.92;;
58446;SDS011;44240;51.840;7.258;2022-09-14T06:49:27;4.53;;;2.50;;
58446;SDS011;44240;51.840;7.258;2022-09-14T06:51:52;8.45;;;2.45;;
58446;SDS011;44240;51.840;7.258;2022-09-14T06:54:20;9.60;;;3.38;;
58446;SDS011;44240;51.840;7.258;2022-09-14T06:56:46;14.35;;;4.15;;
58446;SDS011;44240;51.840;7.258;2022-09-14T06:59:13;5.57;;;2.47;;
58446;SDS011;44240;51.840;7.258;2022-09-14T07:01:39;5.07;;;2.88;;
58446;SDS011;44240;51.840;7.258;2022-09-14T07:04:05;4.53;;;2.50;;
58446;SDS011;44240;51.840;7.258;2022-09-14T07:06:37;7.82;;;2.47;;
58446;SDS011;44240;51.840;7.258;2022-09-14T07:09:04;7.47;;;2.60;;
58446;SDS011;44240;51.840;7.258;2022-09-14T07:11:30;4.75;;;2.38;;
58446;SDS011;44240;51.840;7.258;2022-09-14T07:13:56;4.13;;;3.30;;
58446;SDS011;44240;51.840;7.258;2022-09-14T07:16:23;3.45;;;2.25;;
58446;SDS011;44240;51.840;7.258;2022-09-14T07:18:53;6.75;;;2.30;;
58446;SDS011;44240;51.840;7.258;2022-09-14T07:21:22;5.90;;;2.30;;
58446;SDS011;44240;51.840;7.258;2022-09-14T07:23:49;7.80;;;2.28;;
58446;SDS011;44240;51.840;7.258;2022-09-14T07:26:21;7.72;;;2.38;;
58446;SDS011;44240;51.840;7.258;2022-09-14T07:28:58;5.03;;;2.53;;
58446;SDS011;44240;51.840;7.258;2022-09-14T07:31:30;3.03;;;2.10;;
58446;SDS011;44240;51.840;7.258;2022-09-14T07:34:01;5.72;;;2.38;;
58446;SDS011;44240;51.840;7.258;2022-09-14T07:36:28;9.93;;;2.40;;
58446;SDS011;44240;51.840;7.258;2022-09-14T07:38:55;6.68;;;2.53;;
58446;SDS011;44240;51.840;7.258;2022-09-14T07:41:21;5.95;;;2.22;;
58446;SDS011;44240;51.840;7.258;2022-09-14T07:43:51;5.15;;;2.10;;
58446;SDS011;44240;51.840;7.258;2022-09-14T07:46:19;7.45;;;3.00;;
58446;SDS011;44240;51.840;7.258;2022-09-14T07:48:46;4.72;;;2.58;;
58446;SDS011;44240;51.840;7.258;2022-09-14T07:51:12;6.05;;;3.08;;
58446;SDS011;44240;51.840;7.258;2022-09-14T07:53:40;3.55;;;2.60;;
58446;SDS011;44240;51.840;7.258;2022-09-14T07:56:07;5.68;;;2.78;;
58446;SDS011;44240;51.840;7.258;2022-09-14T07:58:34;6.95;;;2.53;;
58446;SDS011;44240;51.840;7.258;2022-09-14T08:01:02;11.68;;;4.30;;
58446;SDS011;44240;51.840;7.258;2022-09-14T08:03:29;5.70;;;2.78;;
58446;SDS011;44240;51.840;7.258;2022-09-14T08:05:59;7.38;;;2.65;;
58446;SDS011;44240;51.840;7.258;2022-09-14T08:08:30;4.95;;;2.78;;
58446;SDS011;44240;51.840;7.258;2022-09-14T08:11:07;8.50;;;2.95;;
58446;SDS011;44240;51.840;7.258;2022-09-14T08:13:38;7.50;;;3.10;;
58446;SDS011;44240;51.840;7.258;2022-09-14T08:16:06;12.60;;;3.00;;
58446;SDS011;44240;51.840;7.258;2022-09-14T08:18:32;5.97;;;2.65;;
58446;SDS011;44240;51.840;7.258;2022-09-14T08:21:02;7.63;;;2.92;;
58446;SDS011;44240;51.840;7.258;2022-09-14T08:23:30;9.63;;;2.67;;
58446;SDS011;44240;51.840;7.258;2022-09-14T08:26:00;5.10;;;2.33;;
58446;SDS011;44240;51.840;7.258;2022-09-14T08:28:28;7.13;;;2.80;;
58446;SDS011;44240;51.840;7.258;2022-09-14T08:30:54;8.45;;;2.58;;
58446;SDS011;44240;51.840;7.258;2022-09-14T08:33:19;6.68;;;2.70;;
58446;SDS011;44240;51.840;7.258;2022-09-14T08:35:45;5.93;;;2.63;;
58446;SDS011;44240;51.840;7.258;2022-09-14T08:38:10;5.68;;;2.63;;
58446;SDS011;44240;51.840;7.258;2022-09-14T08:40:43;6.88;;;4.05;;
58446;SDS011;44240;51.840;7.258;2022-09-14T08:43:09;4.03;;;2.67;;
58446;SDS011;44240;51.840;7.258;2022-09-14T08:45:41;5.20;;;2.45;;
58446;SDS011;44240;51.840;7.258;2022-09-14T08:50:59;4.97;;;2.70;;
58446;SDS011;44240;51.840;7.258;2022-09-14T08:53:25;4.47;;;3.10;;
58446;SDS011;44240;51.840;7.258;2022-09-14T08:55:58;6.65;;;2.80;;
58446;SDS011;44240;51.840;7.258;2022-09-14T09:01:11;4.85;;;2.38;;
58446;SDS011;44240;51.840;7.258;2022-09-14T09:04:16;6.85;;;2.20;;
58446;SDS011;44240;51.840;7.258;2022-09-14T09:09:27;2.90;;;2.42;;
58446;SDS011;44240;51.840;7.258;2022-09-14T09:11:56;4.72;;;2.10;;
58446;SDS011;44240;51.840;7.258;2022-09-14T09:17:00;5.35;;;2.40;;
58446;SDS011;44240;51.840;7.258;2022-09-14T09:19:37;5.55;;;2.30;;
58446;SDS011;44240;51.840;7.258;2022-09-14T09:22:13;10.10;;;3.00;;
58446;SDS011;44240;51.840;7.258;2022-09-14T09:24:42;5.75;;;2.60;;
58446;SDS011;44240;51.840;7.258;2022-09-14T09:27:13;7.53;;;2.70;;
58446;SDS011;44240;51.840;7.258;2022-09-14T09:29:40;4.20;;;1.98;;
58446;SDS011;44240;51.840;7.258;2022-09-14T09:32:19;7.13;;;2.20;;
58446;SDS011;44240;51.840;7.258;2022-09-14T09:34:47;5.35;;;2.47;;
58446;SDS011;44240;51.840;7.258;2022-09-14T09:37:14;2.67;;;2.40;;
58446;SDS011;44240;51.840;7.258;2022-09-14T09:39:41;3.15;;;2.20;;
58446;SDS011;44240;51.840;7.258;2022-09-14T09:42:24;3.38;;;2.42;;
58446;SDS011;44240;51.840;7.258;2022-09-14T09:44:56;6.22;;;2.42;;
58446;SDS011;44240;51.840;7.258;2022-09-14T09:47:36;5.30;;;2.50;;
58446;SDS011;44240;51.840;7.258;2022-09-14T09:50:04;4.55;;;2.55;;
58446;SDS011;44240;51.840;7.258;2022-09-14T09:52:49;7.32;;;3.03;;
58446;SDS011;44240;51.840;7.258;2022-09-14T09:55:22;10.20;;;2.38;;
58446;SDS011;44240;51.840;7.258;2022-09-14T09:57:51;6.50;;;2.53;;
58446;SDS011;44240;51.840;7.258;2022-09-14T10:02:47;5.13;;;2.70;;
58446;SDS011;44240;51.840;7.258;2022-09-14T10:10:14;5.80;;;2.28;;
58446;SDS011;44240;51.840;7.258;2022-09-14T10:12:45;7.05;;;2.10;;
58446;SDS011;44240;51.840;7.258;2022-09-14T10:15:14;5.03;;;2.10;;
58446;SDS011;44240;51.840;7.258;2022-09-14T10:17:54;2.38;;;2.05;;
58446;SDS011;44240;51.840;7.258;2022-09-14T10:20:37;3.55;;;2.25;;
58446;SDS011;44240;51.840;7.258;2022-09-14T10:23:14;3.65;;;2.20;;
58446;SDS011;44240;51.840;7.258;2022-09-14T10:25:47;2.10;;;1.90;;
58446;SDS011;44240;51.840;7.258;2022-09-14T10:28:31;3.13;;;2.13;;
58446;SDS011;44240;51.840;7.258;2022-09-14T10:33:28;4.38;;;2.70;;
58446;SDS011;44240;51.840;7.258;2022-09-14T10:41:02;4.63;;;3.40;;
58446;SDS011;44240;51.840;7.258;2022-09-14T10:52:14;6.72;;;2.53;;
58446;SDS011;44240;51.840;7.258;2022-09-14T10:57:51;7.68;;;2.35;;
58446;SDS011;44240;51.840;7.258;2022-09-14T11:00:26;3.25;;;2.28;;
58446;SDS011;44240;51.840;7.258;2022-09-14T11:03:16;3.78;;;2.40;;
58446;SDS011;44240;51.840;7.258;2022-09-14T11:08:48;4.38;;;1.80;;
58446;SDS011;44240;51.840;7.258;2022-09-14T11:11:37;3.90;;;1.60;;
58446;SDS011;44240;51.840;7.258;2022-09-14T11:14:33;11.52;;;2.25;;
58446;SDS011;44240;51.840;7.258;2022-09-14T11:31:03;3.13;;;2.50;;
58446;SDS011;44240;51.840;7.258;2022-09-14T11:33:53;3.95;;;2.65;;
58446;SDS011;44240;51.840;7.258;2022-09-14T11:39:14;3.38;;;2.00;;
58446;SDS011;44240;51.840;7.258;2022-09-14T11:44:23;8.48;;;2.50;;
58446;SDS011;44240;51.840;7.258;2022-09-14T11:47:02;3.80;;;2.33;;
58446;SDS011;44240;51.840;7.258;2022-09-14T11:54:40;5.40;;;3.13;;
58446;SDS011;44240;51.840;7.258;2022-09-14T11:57:06;6.15;;;3.20;;
58446;SDS011;44240;51.840;7.258;2022-09-14T12:12:45;9.10;;;3.40;;
58446;SDS011;44240;51.840;7.258;2022-09-14T12:23:25;5.45;;;4.03;;
58446;SDS011;44240;51.840;7.258;2022-09-14T12:31:57;3.88;;;2.50;;
58446;SDS011;44240;51.840;7.258;2022-09-14T12:39:33;5.13;;;3.80;;
58446;SDS011;44240;51.840;7.258;2022-09-14T12:42:04;5.03;;;3.10;;
58446;SDS011;44240;51.840;7.258;2022-09-14T12:44:49;8.80;;;4.10;;
58446;SDS011;44240;51.840;7.258;2022-09-14T12:49:52;6.55;;;3.83;;
58446;SDS011;44240;51.840;7.258;2022-09-14T12:55:07;8.43;;;4.60;;
58446;SDS011;44240;51.840;7.258;2022-09-14T12:57:53;4.75;;;3.60;;
58446;SDS011;44240;51.840;7.258;2022-09-14T13:00:30;9.00;;;5.63;;
58446;SDS011;44240;51.840;7.258;2022-09-14T13:03:17;5.15;;;3.55;;
58446;SDS011;44240;51.840;7.258;2022-09-14T13:05:59;9.80;;;4.22;;
58446;SDS011;44240;51.840;7.258;2022-09-14T13:08:26;7.95;;;4.35;;
58446;SDS011;44240;51.840;7.258;2022-09-14T13:10:52;11.25;;;4.18;;
58446;SDS011;44240;51.840;7.258;2022-09-14T13:13:20;7.68;;;4.43;;
58446;SDS011;44240;51.840;7.258;2022-09-14T13:15:48;7.40;;;4.10;;
58446;SDS011;44240;51.840;7.258;2022-09-14T13:20:48;7.78;;;4.45;;
58446;SDS011;44240;51.840;7.258;2022-09-14T13:23:21;7.18;;;5.32;;
58446;SDS011;44240;51.840;7.258;2022-09-14T13:25:50;9.45;;;4.82;;
58446;SDS011;44240;51.840;7.258;2022-09-14T13:28:17;12.00;;;5.03;;
58446;SDS011;44240;51.840;7.258;2022-09-14T13:30:57;7.50;;;4.72;;
58446;SDS011;44240;51.840;7.258;2022-09-14T13:33:24;9.75;;;5.35;;
58446;SDS011;44240;51.840;7.258;2022-09-14T13:35:54;7.60;;;4.28;;
58446;SDS011;44240;51.840;7.258;2022-09-14T13:38:22;6.40;;;4.63;;
58446;SDS011;44240;51.840;7.258;2022-09-14T13:40:54;7.45;;;4.97;;
58446;SDS011;44240;51.840;7.258;2022-09-14T13:43:28;9.32;;;4.78;;
58446;SDS011;44240;51.840;7.258;2022-09-14T13:45:54;10.88;;;5.07;;
58446;SDS011;44240;51.840;7.258;2022-09-14T13:48:20;8.65;;;5.03;;
58446;SDS011;44240;51.840;7.258;2022-09-14T13:50:47;11.95;;;6.40;;
58446;SDS011;44240;51.840;7.258;2022-09-14T13:56:46;4.88;;;4.38;;
58446;SDS011;44240;51.840;7.258;2022-09-14T14:04:26;7.97;;;4.10;;
58446;SDS011;44240;51.840;7.258;2022-09-14T14:07:04;4.95;;;4.00;;
58446;SDS011;44240;51.840;7.258;2022-09-14T14:09:42;8.70;;;4.15;;
58446;SDS011;44240;51.840;7.258;2022-09-14T14:12:11;4.97;;;3.88;;
58446;SDS011;44240;51.840;7.258;2022-09-14T14:14:54;4.82;;;4.13;;
58446;SDS011;44240;51.840;7.258;2022-09-14T14:19:55;6.43;;;3.90;;
58446;SDS011;44240;51.840;7.258;2022-09-14T14:22:32;8.57;;;3.97;;
58446;SDS011;44240;51.840;7.258;2022-09-14T14:24:59;7.40;;;4.63;;
58446;SDS011;44240;51.840;7.258;2022-09-14T14:27:42;7.05;;;4.72;;
58446;SDS011;44240;51.840;7.258;2022-09-14T14:30:14;5.63;;;4.25;;
58446;SDS011;44240;51.840;7.258;2022-09-14T14:32:42;4.25;;;3.83;;
58446;SDS011;44240;51.840;7.258;2022-09-14T14:35:14;8.20;;;4.30;;
58446;SDS011;44240;51.840;7.258;2022-09-14T14:37:41;6.53;;;4.47;;
58446;SDS011;44240;51.840;7.258;2022-09-14T14:40:09;5.22;;;4.05;;
58446;SDS011;44240;51.840;7.258;2022-09-14T14:42:35;6.07;;;4.32;;
58446;SDS011;44240;51.840;7.258;2022-09-14T14:45:01;8.55;;;4.47;;
58446;SDS011;44240;51.840;7.258;2022-09-14T14:47:27;6.15;;;5.10;;
58446;SDS011;44240;51.840;7.258;2022-09-14T14:49:53;10.45;;;4.70;;
58446;SDS011;44240;51.840;7.258;2022-09-14T14:52:18;7.00;;;4.60;;
58446;SDS011;44240;51.840;7.258;2022-09-14T14:54:44;12.07;;;4.90;;
58446;SDS011;44240;51.840;7.258;2022-09-14T14:57:09;7.93;;;4.30;;
58446;SDS011;44240;51.840;7.258;2022-09-14T14:59:35;5.85;;;4.38;;
58446;SDS011;44240;51.840;7.258;2022-09-14T15:02:01;8.30;;;4.32;;
58446;SDS011;44240;51.840;7.258;2022-09-14T15:04:28;8.32;;;4.13;;
58446;SDS011;44240;51.840;7.258;2022-09-14T15:06:54;5.65;;;3.72;;
58446;SDS011;44240;51.840;7.258;2022-09-14T15:09:21;8.38;;;3.83;;
58446;SDS011;44240;51.840;7.258;2022-09-14T15:11:48;4.75;;;3.60;;
58446;SDS011;44240;51.840;7.258;2022-09-14T15:14:16;6.75;;;3.92;;
58446;SDS011;44240;51.840;7.258;2022-09-14T15:16:43;6.57;;;3.83;;
58446;SDS011;44240;51.840;7.258;2022-09-14T15:19:09;7.55;;;4.18;;
58446;SDS011;44240;51.840;7.258;2022-09-14T15:21:35;7.32;;;3.30;;
58446;SDS011;44240;51.840;7.258;2022-09-14T15:24:05;6.43;;;3.67;;
58446;SDS011;44240;51.840;7.258;2022-09-14T15:26:30;8.90;;;3.83;;
58446;SDS011;44240;51.840;7.258;2022-09-14T15:28:57;8.30;;;4.00;;
58446;SDS011;44240;51.840;7.258;2022-09-14T15:31:23;8.15;;;4.20;;
58446;SDS011;44240;51.840;7.258;2022-09-14T15:33:48;5.97;;;3.50;;
58446;SDS011;44240;51.840;7.258;2022-09-14T15:36:33;9.00;;;4.10;;
58446;SDS011;44240;51.840;7.258;2022-09-14T15:39:07;4.78;;;3.92;;
58446;SDS011;44240;51.840;7.258;2022-09-14T15:41:35;6.30;;;3.75;;
58446;SDS011;44240;51.840;7.258;2022-09-14T15:44:01;9.50;;;3.75;;
58446;SDS011;44240;51.840;7.258;2022-09-14T15:46:27;5.50;;;3.97;;
58446;SDS011;44240;51.840;7.258;2022-09-14T15:48:54;4.25;;;3.72;;
58446;SDS011;44240;51.840;7.258;2022-09-14T15:51:19;5.65;;;3.67;;
58446;SDS011;44240;51.840;7.258;2022-09-14T15:53:45;4.35;;;3.60;;
58446;SDS011;44240;51.840;7.258;2022-09-14T15:56:12;6.82;;;3.50;;
58446;SDS011;44240;51.840;7.258;2022-09-14T15:58:39;4.68;;;3.55;;
58446;SDS011;44240;51.840;7.258;2022-09-14T16:01:09;7.28;;;3.88;;
58446;SDS011;44240;51.840;7.258;2022-09-14T16:03:35;4.65;;;3.60;;
58446;SDS011;44240;51.840;7.258;2022-09-14T16:06:01;4.10;;;3.45;;
58446;SDS011;44240;51.840;7.258;2022-09-14T16:08:27;8.30;;;3.88;;
58446;SDS011;44240;51.840;7.258;2022-09-14T16:10:57;6.07;;;3.80;;
58446;SDS011;44240;51.840;7.258;2022-09-14T16:13:23;5.40;;;3.50;;
58446;SDS011;44240;51.840;7.258;2022-09-14T16:15:49;4.63;;;3.78;;
58446;SDS011;44240;51.840;7.258;2022-09-14T16:18:14;7.75;;;3.67;;
58446;SDS011;44240;51.840;7.258;2022-09-14T16:20:40;6.93;;;4.15;;
58446;SDS011;44240;51.840;7.258;2022-09-14T16:23:06;4.78;;;3.30;;
58446;SDS011;44240;51.840;7.258;2022-09-14T16:25:35;9.15;;;3.95;;
58446;SDS011;44240;51.840;7.258;2022-09-14T16:28:04;5.93;;;3.30;;
58446;SDS011;44240;51.840;7.258;2022-09-14T16:30:30;4.82;;;3.17;;
58446;SDS011;44240;51.840;7.258;2022-09-14T16:32:56;6.97;;;3.40;;
58446;SDS011;44240;51.840;7.258;2022-09-14T16:35:21;5.38;;;3.20;;
58446;SDS011;44240;51.840;7.258;2022-09-14T16:37:47;7.45;;;4.22;;
58446;SDS011;44240;51.840;7.258;2022-09-14T16:40:12;5.05;;;3.55;;
58446;SDS011;44240;51.840;7.258;2022-09-14T16:42:38;11.88;;;4.90;;
58446;SDS011;44240;51.840;7.258;2022-09-14T16:45:03;5.45;;;3.33;;
58446;SDS011;44240;51.840;7.258;2022-09-14T16:47:30;5.70;;;3.38;;
58446;SDS011;44240;51.840;7.258;2022-09-14T16:49:56;4.82;;;4.03;;
58446;SDS011;44240;51.840;7.258;2022-09-14T16:52:22;4.18;;;3.75;;
58446;SDS011;44240;51.840;7.258;2022-09-14T16:54:47;7.90;;;3.63;;
58446;SDS011;44240;51.840;7.258;2022-09-14T16:57:13;4.90;;;4.03;;
58446;SDS011;44240;51.840;7.258;2022-09-14T16:59:38;7.80;;;4.03;;
58446;SDS011;44240;51.840;7.258;2022-09-14T17:02:04;6.05;;;4.07;;
58446;SDS011;44240;51.840;7.258;2022-09-14T17:04:30;5.22;;;4.15;;
58446;SDS011;44240;51.840;7.258;2022-09-14T17:06:55;6.25;;;3.50;;
58446;SDS011;44240;51.840;7.258;2022-09-14T17:09:22;8.77;;;4.63;;
58446;SDS011;44240;51.840;7.258;2022-09-14T17:11:52;7.50;;;4.10;;
58446;SDS011;44240;51.840;7.258;2022-09-14T17:14:19;7.43;;;5.22;;
58446;SDS011;44240;51.840;7.258;2022-09-14T17:16:47;7.35;;;4.03;;
58446;SDS011;44240;51.840;7.258;2022-09-14T17:19:13;5.57;;;3.47;;
58446;SDS011;44240;51.840;7.258;2022-09-14T17:21:40;4.40;;;3.90;;
58446;SDS011;44240;51.840;7.258;2022-09-14T17:24:07;6.43;;;4.15;;